sensor_id;sensor_type;location;lat;lon;timestamp;pressure;altitude;pressure_sealevel;temperature;humidity
70072;BME280;57434;42.794;23.302;2023-01-26T00:00:36;96185.94;;;-0.45;77.55
70072;BME280;57434;42.794;23.302;2023-01-26T00:01:38;96161.69;;;-0.60;77.48
70072;BME280;57434;42.794;23.302;2023-01-26T00:02:40;96200.06;;;-0.39;77.64
70072;BME280;57434;42.794;23.302;2023-01-26T00:03:43;96050.94;;;-1.30;77.23
70072;BME280;57434;42.794;23.302;2023-01-26T00:04:45;96164.44;;;-0.60;77.03
70072;BME280;57434;42.794;23.302;2023-01-26T00:05:47;96166.41;;;-0.61;77.26
70072;BME280;57434;42.794;23.302;2023-01-26T00:06:49;96213.94;;;-0.46;77.28
70072;BME280;57434;42.794;23.302;2023-01-26T00:07:51;96178.97;;;-0.56;76.89
70072;BME280;57434;42.794;23.302;2023-01-26T00:08:54;96178.59;;;-0.58;76.58
70072;BME280;57434;42.794;23.302;2023-01-26T00:09:57;96201.75;;;-0.49;76.36
70072;BME280;57434;42.794;23.302;2023-01-26T00:11:06;96123.78;;;-0.94;76.50
70072;BME280;57434;42.794;23.302;2023-01-26T00:12:08;96079.66;;;-1.31;76.57
70072;BME280;57434;42.794;23.302;2023-01-26T00:13:10;96178.22;;;-0.60;76.65
70072;BME280;57434;42.794;23.302;2023-01-26T00:14:12;96171.94;;;-0.64;76.54
70072;BME280;57434;42.794;23.302;2023-01-26T00:15:14;96160.97;;;-0.72;76.29
70072;BME280;57434;42.794;23.302;2023-01-26T00:16:16;96181.34;;;-0.58;76.45
70072;BME280;57434;42.794;23.302;2023-01-26T00:17:19;96198.91;;;-0.42;76.25
70072;BME280;57434;42.794;23.302;2023-01-26T00:18:21;96156.19;;;-0.64;76.06
70072;BME280;57434;42.794;23.302;2023-01-26T00:19:23;96176.25;;;-0.60;76.33
70072;BME280;57434;42.794;23.302;2023-01-26T00:20:26;96200.88;;;-0.42;76.27
70072;BME280;57434;42.794;23.302;2023-01-26T00:21:28;96151.28;;;-0.87;76.43
70072;BME280;57434;42.794;23.302;2023-01-26T00:22:30;96202.84;;;-0.39;76.28
70072;BME280;57434;42.794;23.302;2023-01-26T00:23:33;96220.56;;;-0.40;76.14
70072;BME280;57434;42.794;23.302;2023-01-26T00:24:35;96203.66;;;-0.42;75.88
70072;BME280;57434;42.794;23.302;2023-01-26T00:25:38;96109.75;;;-1.10;76.17
70072;BME280;57434;42.794;23.302;2023-01-26T00:26:40;96196.25;;;-0.49;76.32
70072;BME280;57434;42.794;23.302;2023-01-26T00:27:42;96204.09;;;-0.47;76.42
70072;BME280;57434;42.794;23.302;2023-01-26T00:28:44;96030.34;;;-1.67;76.53
70072;BME280;57434;42.794;23.302;2023-01-26T00:29:46;96150.91;;;-0.89;76.57
70072;BME280;57434;42.794;23.302;2023-01-26T00:30:48;96206.91;;;-0.54;76.51
70072;BME280;57434;42.794;23.302;2023-01-26T00:31:50;96183.34;;;-0.62;76.76
70072;BME280;57434;42.794;23.302;2023-01-26T00:32:52;96197.84;;;-0.51;76.66
70072;BME280;57434;42.794;23.302;2023-01-26T00:33:54;96200.59;;;-0.51;76.67
70072;BME280;57434;42.794;23.302;2023-01-26T00:34:57;96190.75;;;-0.52;76.71
70072;BME280;57434;42.794;23.302;2023-01-26T00:35:59;96025.25;;;-1.69;76.43
70072;BME280;57434;42.794;23.302;2023-01-26T00:37:01;96186.88;;;-0.58;76.77
70072;BME280;57434;42.794;23.302;2023-01-26T00:38:03;96169.38;;;-0.86;77.14
70072;BME280;57434;42.794;23.302;2023-01-26T00:39:05;96117.22;;;-1.07;76.97
70072;BME280;57434;42.794;23.302;2023-01-26T00:40:09;96173.88;;;-0.58;77.05
70072;BME280;57434;42.794;23.302;2023-01-26T00:41:12;96155.44;;;-0.68;76.78
70072;BME280;57434;42.794;23.302;2023-01-26T00:42:14;96011.53;;;-1.72;76.48
70072;BME280;57434;42.794;23.302;2023-01-26T00:43:16;96189.19;;;-0.53;76.55
70072;BME280;57434;42.794;23.302;2023-01-26T00:44:18;95973.81;;;-1.75;76.56
70072;BME280;57434;42.794;23.302;2023-01-26T00:45:21;96118.22;;;-0.87;76.51
70072;BME280;57434;42.794;23.302;2023-01-26T00:46:23;96170.72;;;-0.60;76.55
70072;BME280;57434;42.794;23.302;2023-01-26T00:47:24;95996.53;;;-1.64;76.42
70072;BME280;57434;42.794;23.302;2023-01-26T00:48:26;96029.44;;;-1.50;76.45
70072;BME280;57434;42.794;23.302;2023-01-26T00:49:28;96123.69;;;-0.80;76.30
70072;BME280;57434;42.794;23.302;2023-01-26T00:50:30;96130.38;;;-0.81;76.21
70072;BME280;57434;42.794;23.302;2023-01-26T00:51:32;96161.75;;;-0.68;75.69
70072;BME280;57434;42.794;23.302;2023-01-26T00:52:34;96133.56;;;-0.86;76.40
70072;BME280;57434;42.794;23.302;2023-01-26T00:53:36;96131.13;;;-0.77;76.57
70072;BME280;57434;42.794;23.302;2023-01-26T00:54:38;96118.22;;;-0.87;76.59
70072;BME280;57434;42.794;23.302;2023-01-26T00:55:40;96153.44;;;-0.64;76.65
70072;BME280;57434;42.794;23.302;2023-01-26T00:56:44;96119.34;;;-0.81;76.65
70072;BME280;57434;42.794;23.302;2023-01-26T00:57:46;96139.38;;;-0.73;76.59
70072;BME280;57434;42.794;23.302;2023-01-26T00:58:49;95974.66;;;-1.82;76.68
70072;BME280;57434;42.794;23.302;2023-01-26T00:59:51;96047.38;;;-1.27;76.74
70072;BME280;57434;42.794;23.302;2023-01-26T01:00:53;96078.72;;;-1.14;76.52
70072;BME280;57434;42.794;23.302;2023-01-26T01:01:55;96151.09;;;-0.66;76.77
70072;BME280;57434;42.794;23.302;2023-01-26T01:02:57;96147.22;;;-0.72;76.82
70072;BME280;57434;42.794;23.302;2023-01-26T01:03:59;96129.56;;;-0.78;76.77
70072;BME280;57434;42.794;23.302;2023-01-26T01:05:02;96155.41;;;-0.64;76.76
70072;BME280;57434;42.794;23.302;2023-01-26T01:06:04;96156.59;;;-0.62;77.09
70072;BME280;57434;42.794;23.302;2023-01-26T01:07:06;96012.16;;;-1.50;77.00
70072;BME280;57434;42.794;23.302;2023-01-26T01:08:08;96152.28;;;-0.67;77.06
70072;BME280;57434;42.794;23.302;2023-01-26T01:09:11;96129.47;;;-0.67;77.23
70072;BME280;57434;42.794;23.302;2023-01-26T01:10:14;96133.38;;;-0.64;77.19
70072;BME280;57434;42.794;23.302;2023-01-26T01:11:16;96136.50;;;-0.62;77.22
70072;BME280;57434;42.794;23.302;2023-01-26T01:12:18;96145.59;;;-0.66;77.13
70072;BME280;57434;42.794;23.302;2023-01-26T01:13:20;96067.34;;;-1.20;77.39
70072;BME280;57434;42.794;23.302;2023-01-26T01:14:22;96124.91;;;-0.88;77.24
70072;BME280;57434;42.794;23.302;2023-01-26T01:15:24;96095.47;;;-0.98;77.27
70072;BME280;57434;42.794;23.302;2023-01-26T01:16:26;95985.22;;;-1.77;77.13
70072;BME280;57434;42.794;23.302;2023-01-26T01:17:28;96047.44;;;-1.35;77.26
70072;BME280;57434;42.794;23.302;2023-01-26T01:18:30;96116.28;;;-0.90;76.85
70072;BME280;57434;42.794;23.302;2023-01-26T01:19:32;96126.44;;;-0.80;76.89
70072;BME280;57434;42.794;23.302;2023-01-26T01:20:34;96160.50;;;-0.59;76.85
70072;BME280;57434;42.794;23.302;2023-01-26T01:21:36;96113.53;;;-0.90;76.67
70072;BME280;57434;42.794;23.302;2023-01-26T01:22:38;96146.75;;;-0.63;76.79
70072;BME280;57434;42.794;23.302;2023-01-26T01:23:40;95948.00;;;-1.88;76.36
70072;BME280;57434;42.794;23.302;2023-01-26T01:24:43;96148.75;;;-0.67;76.57
70072;BME280;57434;42.794;23.302;2023-01-26T01:25:45;96115.47;;;-0.87;76.51
70072;BME280;57434;42.794;23.302;2023-01-26T01:26:47;96143.22;;;-0.67;76.29
70072;BME280;57434;42.794;23.302;2023-01-26T01:27:49;95998.84;;;-1.55;76.35
70072;BME280;57434;42.794;23.302;2023-01-26T01:28:54;96081.00;;;-1.06;76.30
70072;BME280;57434;42.794;23.302;2023-01-26T01:29:56;96130.31;;;-0.74;76.29
70072;BME280;57434;42.794;23.302;2023-01-26T01:30:58;96154.38;;;-0.78;76.61
70072;BME280;57434;42.794;23.302;2023-01-26T01:32:00;96066.13;;;-1.15;76.67
70072;BME280;57434;42.794;23.302;2023-01-26T01:33:02;96143.22;;;-0.67;76.53
70072;BME280;57434;42.794;23.302;2023-01-26T01:34:04;96131.03;;;-0.66;76.03
70072;BME280;57434;42.794;23.302;2023-01-26T01:35:07;96119.31;;;-0.74;76.22
70072;BME280;57434;42.794;23.302;2023-01-26T01:36:14;96131.06;;;-0.70;76.08
70072;BME280;57434;42.794;23.302;2023-01-26T01:37:16;96106.41;;;-0.87;75.95
70072;BME280;57434;42.794;23.302;2023-01-26T01:38:18;96054.38;;;-1.23;76.23
70072;BME280;57434;42.794;23.302;2023-01-26T01:39:20;96094.66;;;-0.91;76.25
70072;BME280;57434;42.794;23.302;2023-01-26T01:40:22;96105.63;;;-0.88;76.13
70072;BME280;57434;42.794;23.302;2023-01-26T01:41:24;96108.00;;;-0.90;76.27
70072;BME280;57434;42.794;23.302;2023-01-26T01:42:26;96082.88;;;-0.95;76.16
70072;BME280;57434;42.794;23.302;2023-01-26T01:43:28;96101.25;;;-0.82;76.28
70072;BME280;57434;42.794;23.302;2023-01-26T01:44:33;96006.97;;;-1.96;75.88
70072;BME280;57434;42.794;23.302;2023-01-26T01:45:46;96135.34;;;-0.65;76.19
70072;BME280;57434;42.794;23.302;2023-01-26T01:49:31;96124.72;;;-0.67;76.06
70072;BME280;57434;42.794;23.302;2023-01-26T01:50:37;96139.66;;;-0.64;76.27
70072;BME280;57434;42.794;23.302;2023-01-26T01:51:43;96119.34;;;-0.81;76.72
70072;BME280;57434;42.794;23.302;2023-01-26T01:52:46;96133.56;;;-0.86;76.54
70072;BME280;57434;42.794;23.302;2023-01-26T01:53:50;96127.59;;;-0.77;77.01
70072;BME280;57434;42.794;23.302;2023-01-26T01:55:02;95924.13;;;-2.02;76.20
70072;BME280;57434;42.794;23.302;2023-01-26T01:56:11;96148.41;;;-0.73;76.33
70072;BME280;57434;42.794;23.302;2023-01-26T01:57:24;96128.00;;;-0.79;76.10
70072;BME280;57434;42.794;23.302;2023-01-26T01:58:29;96135.00;;;-0.71;76.10
70072;BME280;57434;42.794;23.302;2023-01-26T01:59:33;96103.72;;;-0.94;75.96
70072;BME280;57434;42.794;23.302;2023-01-26T02:00:35;96136.56;;;-0.70;76.21
70072;BME280;57434;42.794;23.302;2023-01-26T02:01:37;96047.31;;;-1.24;75.98
70072;BME280;57434;42.794;23.302;2023-01-26T02:02:40;96134.19;;;-0.68;76.49
70072;BME280;57434;42.794;23.302;2023-01-26T02:03:46;96086.03;;;-0.97;76.17
70072;BME280;57434;42.794;23.302;2023-01-26T02:04:50;96127.06;;;-0.61;76.11
70072;BME280;57434;42.794;23.302;2023-01-26T02:06:03;95901.06;;;-2.15;75.86
70072;BME280;57434;42.794;23.302;2023-01-26T02:07:09;96109.66;;;-1.00;76.45
70072;BME280;57434;42.794;23.302;2023-01-26T02:08:14;96038.69;;;-1.26;75.96
70072;BME280;57434;42.794;23.302;2023-01-26T02:09:20;96129.06;;;-0.66;75.82
70072;BME280;57434;42.794;23.302;2023-01-26T02:10:24;96118.09;;;-0.73;75.95
70072;BME280;57434;42.794;23.302;2023-01-26T02:11:46;96121.28;;;-0.74;76.00
70072;BME280;57434;42.794;23.302;2023-01-26T02:12:52;96086.38;;;-0.91;75.97
70072;BME280;57434;42.794;23.302;2023-01-26T02:13:56;96116.63;;;-0.84;76.40
70072;BME280;57434;42.794;23.302;2023-01-26T02:15:00;96097.84;;;-0.96;76.48
70072;BME280;57434;42.794;23.302;2023-01-26T02:16:03;96085.16;;;-0.87;76.65
70072;BME280;57434;42.794;23.302;2023-01-26T02:17:05;96062.09;;;-1.00;76.28
70072;BME280;57434;42.794;23.302;2023-01-26T02:18:07;96069.91;;;-0.98;76.34
70072;BME280;57434;42.794;23.302;2023-01-26T02:19:16;96120.13;;;-0.77;76.69
70072;BME280;57434;42.794;23.302;2023-01-26T02:20:44;96109.06;;;-0.73;77.01
70072;BME280;57434;42.794;23.302;2023-01-26T02:21:49;96016.66;;;-1.26;76.43
70072;BME280;57434;42.794;23.302;2023-01-26T02:24:06;96092.16;;;-0.75;76.47
70072;BME280;57434;42.794;23.302;2023-01-26T02:25:38;96043.56;;;-1.00;76.54
70072;BME280;57434;42.794;23.302;2023-01-26T02:26:41;96077.22;;;-0.78;76.61
70072;BME280;57434;42.794;23.302;2023-01-26T02:27:44;96037.72;;;-1.02;76.74
70072;BME280;57434;42.794;23.302;2023-01-26T02:28:46;96022.09;;;-1.15;76.82
70072;BME280;57434;42.794;23.302;2023-01-26T02:29:49;95891.84;;;-1.91;76.93
70072;BME280;57434;42.794;23.302;2023-01-26T02:30:52;96050.94;;;-0.86;76.97
70072;BME280;57434;42.794;23.302;2023-01-26T02:33:35;96057.53;;;-0.76;76.94
70072;BME280;57434;42.794;23.302;2023-01-26T02:34:37;96053.25;;;-0.81;76.94
70072;BME280;57434;42.794;23.302;2023-01-26T02:35:39;96025.03;;;-0.95;76.85
70072;BME280;57434;42.794;23.302;2023-01-26T02:36:41;96056.34;;;-0.75;76.60
70072;BME280;57434;42.794;23.302;2023-01-26T02:37:43;96043.81;;;-0.83;76.62
70072;BME280;57434;42.794;23.302;2023-01-26T02:40:06;96061.00;;;-0.72;76.75
70072;BME280;57434;42.794;23.302;2023-01-26T02:41:12;96044.59;;;-0.83;76.73
70072;BME280;57434;42.794;23.302;2023-01-26T02:42:15;96057.13;;;-0.75;76.88
70072;BME280;57434;42.794;23.302;2023-01-26T02:43:17;95945.72;;;-1.52;76.78
70072;BME280;57434;42.794;23.302;2023-01-26T02:44:19;96047.75;;;-0.81;77.01
70072;BME280;57434;42.794;23.302;2023-01-26T02:45:22;96064.94;;;-0.70;76.82
70072;BME280;57434;42.794;23.302;2023-01-26T02:46:26;95957.81;;;-1.39;76.91
70072;BME280;57434;42.794;23.302;2023-01-26T02:47:28;95923.06;;;-1.67;76.82
70072;BME280;57434;42.794;23.302;2023-01-26T02:48:30;96059.75;;;-0.64;76.89
70072;BME280;57434;42.794;23.302;2023-01-26T02:49:33;96056.22;;;-0.64;76.86
70072;BME280;57434;42.794;23.302;2023-01-26T02:50:35;95969.56;;;-1.31;76.83
70072;BME280;57434;42.794;23.302;2023-01-26T02:51:37;96030.38;;;-0.74;76.74
70072;BME280;57434;42.794;23.302;2023-01-26T02:52:39;96044.38;;;-0.61;76.94
70072;BME280;57434;42.794;23.302;2023-01-26T02:53:41;96028.09;;;-0.86;77.22
70072;BME280;57434;42.794;23.302;2023-01-26T02:54:43;96020.22;;;-0.84;76.97
70072;BME280;57434;42.794;23.302;2023-01-26T02:55:45;96024.06;;;-0.75;77.11
70072;BME280;57434;42.794;23.302;2023-01-26T02:56:47;96041.25;;;-0.63;77.24
70072;BME280;57434;42.794;23.302;2023-01-26T02:58:07;95883.38;;;-1.66;76.98
70072;BME280;57434;42.794;23.302;2023-01-26T02:59:09;95979.88;;;-1.02;77.28
70072;BME280;57434;42.794;23.302;2023-01-26T03:00:17;96031.09;;;-0.70;77.22
70072;BME280;57434;42.794;23.302;2023-01-26T03:01:19;96018.38;;;-0.98;77.38
70072;BME280;57434;42.794;23.302;2023-01-26T03:02:21;95975.25;;;-1.12;77.05
70072;BME280;57434;42.794;23.302;2023-01-26T03:03:26;96045.94;;;-0.60;77.12
70072;BME280;57434;42.794;23.302;2023-01-26T03:04:28;96037.72;;;-0.64;77.27
70072;BME280;57434;42.794;23.302;2023-01-26T03:05:30;96031.00;;;-0.63;77.13
70072;BME280;57434;42.794;23.302;2023-01-26T03:06:32;95988.84;;;-0.94;77.08
70072;BME280;57434;42.794;23.302;2023-01-26T03:07:34;96001.38;;;-0.89;76.94
70072;BME280;57434;42.794;23.302;2023-01-26T03:08:37;95961.50;;;-1.12;77.14
70072;BME280;57434;42.794;23.302;2023-01-26T03:09:39;95986.84;;;-0.93;77.00
70072;BME280;57434;42.794;23.302;2023-01-26T03:10:41;96007.97;;;-0.80;77.29
70072;BME280;57434;42.794;23.302;2023-01-26T03:11:44;96026.34;;;-0.70;77.24
70072;BME280;57434;42.794;23.302;2023-01-26T03:12:45;96015.84;;;-0.78;77.05
70072;BME280;57434;42.794;23.302;2023-01-26T03:13:47;96007.28;;;-0.91;77.08
70072;BME280;57434;42.794;23.302;2023-01-26T03:14:49;95996.56;;;-0.78;77.27
70072;BME280;57434;42.794;23.302;2023-01-26T03:15:51;96017.63;;;-0.61;77.38
70072;BME280;57434;42.794;23.302;2023-01-26T03:16:53;95989.66;;;-0.97;77.20
70072;BME280;57434;42.794;23.302;2023-01-26T03:18:07;96046.38;;;-0.66;76.90
70072;BME280;57434;42.794;23.302;2023-01-26T03:19:12;96039.28;;;-0.63;76.87
70072;BME280;57434;42.794;23.302;2023-01-26T03:20:15;96010.94;;;-0.63;76.57
70072;BME280;57434;42.794;23.302;2023-01-26T03:21:17;96022.91;;;-0.77;76.66
70072;BME280;57434;42.794;23.302;2023-01-26T03:22:19;96015.41;;;-0.73;77.18
70072;BME280;57434;42.794;23.302;2023-01-26T03:23:21;95965.81;;;-1.11;77.54
70072;BME280;57434;42.794;23.302;2023-01-26T03:24:23;95978.69;;;-1.01;77.32
70072;BME280;57434;42.794;23.302;2023-01-26T03:25:26;95950.84;;;-1.10;77.39
70072;BME280;57434;42.794;23.302;2023-01-26T03:26:28;96010.22;;;-0.71;76.88
70072;BME280;57434;42.794;23.302;2023-01-26T03:27:35;96005.88;;;-0.69;77.49
70072;BME280;57434;42.794;23.302;2023-01-26T03:28:38;95999.75;;;-0.83;76.67
70072;BME280;57434;42.794;23.302;2023-01-26T03:29:40;95978.97;;;-0.91;76.70
70072;BME280;57434;42.794;23.302;2023-01-26T03:30:42;95971.88;;;-0.89;76.32
70072;BME280;57434;42.794;23.302;2023-01-26T03:31:44;95937.50;;;-1.11;76.30
70072;BME280;57434;42.794;23.302;2023-01-26T03:32:46;95940.25;;;-1.11;76.27
70072;BME280;57434;42.794;23.302;2023-01-26T03:33:48;95931.97;;;-1.11;76.53
70072;BME280;57434;42.794;23.302;2023-01-26T03:34:50;95931.59;;;-1.13;76.38
70072;BME280;57434;42.794;23.302;2023-01-26T03:35:53;95969.41;;;-0.80;76.00
70072;BME280;57434;42.794;23.302;2023-01-26T03:36:55;95991.00;;;-0.75;76.26
70072;BME280;57434;42.794;23.302;2023-01-26T03:37:57;95984.00;;;-0.83;76.48
70072;BME280;57434;42.794;23.302;2023-01-26T03:38:59;95910.28;;;-1.43;75.97
70072;BME280;57434;42.794;23.302;2023-01-26T03:40:05;95995.88;;;-0.89;75.87
70072;BME280;57434;42.794;23.302;2023-01-26T03:41:07;96007.47;;;-0.71;75.97
70072;BME280;57434;42.794;23.302;2023-01-26T03:42:09;95904.66;;;-1.29;75.68
70072;BME280;57434;42.794;23.302;2023-01-26T03:43:11;95825.31;;;-1.75;75.65
70072;BME280;57434;42.794;23.302;2023-01-26T03:44:13;95969.50;;;-0.87;75.81
70072;BME280;57434;42.794;23.302;2023-01-26T03:45:15;95984.53;;;-0.98;75.64
70072;BME280;57434;42.794;23.302;2023-01-26T03:46:17;95994.53;;;-0.74;75.43
70072;BME280;57434;42.794;23.302;2023-01-26T03:47:19;95977.03;;;-0.94;75.72
70072;BME280;57434;42.794;23.302;2023-01-26T03:48:21;95991.97;;;-0.92;75.83
70072;BME280;57434;42.794;23.302;2023-01-26T03:49:23;95969.94;;;-0.92;76.04
70072;BME280;57434;42.794;23.302;2023-01-26T03:50:25;95945.28;;;-1.03;75.82
70072;BME280;57434;42.794;23.302;2023-01-26T03:51:27;95951.09;;;-0.97;75.68
70072;BME280;57434;42.794;23.302;2023-01-26T03:52:32;95841.75;;;-1.68;75.82
70072;BME280;57434;42.794;23.302;2023-01-26T03:53:34;95982.78;;;-0.78;75.46
70072;BME280;57434;42.794;23.302;2023-01-26T03:54:36;95972.94;;;-0.79;75.43
70072;BME280;57434;42.794;23.302;2023-01-26T03:55:38;95973.88;;;-0.93;75.33
70072;BME280;57434;42.794;23.302;2023-01-26T03:56:40;95941.88;;;-1.17;75.59
70072;BME280;57434;42.794;23.302;2023-01-26T03:57:42;95956.31;;;-1.06;75.66
70072;BME280;57434;42.794;23.302;2023-01-26T03:58:45;95947.25;;;-1.03;75.82
70072;BME280;57434;42.794;23.302;2023-01-26T03:59:47;95913.59;;;-1.21;75.81
70072;BME280;57434;42.794;23.302;2023-01-26T04:00:49;95979.25;;;-0.79;75.82
70072;BME280;57434;42.794;23.302;2023-01-26T04:01:51;95982.75;;;-0.75;75.86
70072;BME280;57434;42.794;23.302;2023-01-26T04:02:53;95971.38;;;-0.80;75.67
70072;BME280;57434;42.794;23.302;2023-01-26T04:03:56;95962.00;;;-0.86;75.45
70072;BME280;57434;42.794;23.302;2023-01-26T04:04:58;95827.69;;;-1.77;75.20
70072;BME280;57434;42.794;23.302;2023-01-26T04:06:00;95972.63;;;-0.85;75.23
70072;BME280;57434;42.794;23.302;2023-01-26T04:07:17;95958.91;;;-0.92;76.02
70072;BME280;57434;42.794;23.302;2023-01-26T04:08:19;95944.09;;;-1.02;75.12
70072;BME280;57434;42.794;23.302;2023-01-26T04:09:21;95967.44;;;-0.79;75.48
70072;BME280;57434;42.794;23.302;2023-01-26T04:10:26;95987.09;;;-0.77;75.43
70072;BME280;57434;42.794;23.302;2023-01-26T04:11:28;95924.47;;;-1.07;75.68
70072;BME280;57434;42.794;23.302;2023-01-26T04:12:30;95970.22;;;-0.83;75.54
70072;BME280;57434;42.794;23.302;2023-01-26T04:13:32;95963.47;;;-0.75;75.54
70072;BME280;57434;42.794;23.302;2023-01-26T04:14:34;95974.56;;;-0.82;75.64
70072;BME280;57434;42.794;23.302;2023-01-26T04:15:50;95962.28;;;-0.74;75.58
70072;BME280;57434;42.794;23.302;2023-01-26T04:16:53;95885.72;;;-1.27;75.62
70072;BME280;57434;42.794;23.302;2023-01-26T04:17:55;95965.03;;;-0.74;75.73
70072;BME280;57434;42.794;23.302;2023-01-26T04:18:57;95962.63;;;-0.72;75.72
70072;BME280;57434;42.794;23.302;2023-01-26T04:19:59;95964.25;;;-0.74;76.09
70072;BME280;57434;42.794;23.302;2023-01-26T04:21:03;95962.63;;;-0.72;75.83
70072;BME280;57434;42.794;23.302;2023-01-26T04:22:05;95790.00;;;-1.80;75.74
70072;BME280;57434;42.794;23.302;2023-01-26T04:23:16;95941.63;;;-0.96;75.84
70072;BME280;57434;42.794;23.302;2023-01-26T04:24:18;95935.84;;;-0.71;76.13
70072;BME280;57434;42.794;23.302;2023-01-26T04:25:21;95955.53;;;-0.73;76.27
70072;BME280;57434;42.794;23.302;2023-01-26T04:26:24;95958.66;;;-0.71;75.87
70072;BME280;57434;42.794;23.302;2023-01-26T04:27:26;95721.59;;;-2.12;75.45
70072;BME280;57434;42.794;23.302;2023-01-26T04:28:28;95947.28;;;-0.73;75.90
70072;BME280;57434;42.794;23.302;2023-01-26T04:29:30;95887.63;;;-1.20;75.94
70072;BME280;57434;42.794;23.302;2023-01-26T04:30:32;95881.97;;;-1.06;76.06
70072;BME280;57434;42.794;23.302;2023-01-26T04:31:34;95889.81;;;-1.05;75.94
70072;BME280;57434;42.794;23.302;2023-01-26T04:32:37;95915.56;;;-0.84;75.87
70072;BME280;57434;42.794;23.302;2023-01-26T04:33:39;95927.28;;;-0.77;76.33
70072;BME280;57434;42.794;23.302;2023-01-26T04:34:41;95957.94;;;-0.75;76.06
70072;BME280;57434;42.794;23.302;2023-01-26T04:35:43;95919.50;;;-0.85;76.37
70072;BME280;57434;42.794;23.302;2023-01-26T04:36:45;95899.25;;;-1.02;76.39
70072;BME280;57434;42.794;23.302;2023-01-26T04:37:47;95943.41;;;-0.75;76.24
70072;BME280;57434;42.794;23.302;2023-01-26T04:38:49;95920.16;;;-0.74;75.68
70072;BME280;57434;42.794;23.302;2023-01-26T04:39:51;95879.66;;;-1.11;75.50
70072;BME280;57434;42.794;23.302;2023-01-26T04:40:53;95900.50;;;-1.10;75.91
70072;BME280;57434;42.794;23.302;2023-01-26T04:41:56;95924.53;;;-0.77;75.82
70072;BME280;57434;42.794;23.302;2023-01-26T04:42:58;95910.09;;;-0.88;75.44
70072;BME280;57434;42.794;23.302;2023-01-26T04:43:59;95935.03;;;-1.02;75.64
70072;BME280;57434;42.794;23.302;2023-01-26T04:45:02;95938.28;;;-0.77;75.49
70072;BME280;57434;42.794;23.302;2023-01-26T04:46:06;95908.22;;;-0.98;75.47
70072;BME280;57434;42.794;23.302;2023-01-26T04:47:08;95790.00;;;-1.80;75.54
70072;BME280;57434;42.794;23.302;2023-01-26T04:48:10;95932.94;;;-0.91;75.42
70072;BME280;57434;42.794;23.302;2023-01-26T04:49:12;95936.34;;;-0.80;75.54
70072;BME280;57434;42.794;23.302;2023-01-26T04:50:14;95949.06;;;-0.89;75.64
70072;BME280;57434;42.794;23.302;2023-01-26T04:51:19;95941.00;;;-0.73;75.91
70072;BME280;57434;42.794;23.302;2023-01-26T04:52:21;95757.91;;;-1.90;75.67
70072;BME280;57434;42.794;23.302;2023-01-26T04:53:24;95739.16;;;-2.03;75.19
70072;BME280;57434;42.794;23.302;2023-01-26T04:54:26;95915.50;;;-0.81;75.34
70072;BME280;57434;42.794;23.302;2023-01-26T04:55:28;95895.72;;;-1.03;75.31
70072;BME280;57434;42.794;23.302;2023-01-26T04:56:33;95932.16;;;-0.91;75.72
70072;BME280;57434;42.794;23.302;2023-01-26T04:57:35;95907.03;;;-0.97;75.53
70072;BME280;57434;42.794;23.302;2023-01-26T04:58:37;95933.50;;;-0.73;75.65
70072;BME280;57434;42.794;23.302;2023-01-26T04:59:39;95928.13;;;-0.83;75.79
70072;BME280;57434;42.794;23.302;2023-01-26T05:00:41;95854.63;;;-1.24;75.64
70072;BME280;57434;42.794;23.302;2023-01-26T05:01:43;95912.44;;;-0.86;75.57
70072;BME280;57434;42.794;23.302;2023-01-26T05:02:45;95898.88;;;-1.04;75.51
70072;BME280;57434;42.794;23.302;2023-01-26T05:03:47;95951.25;;;-0.74;75.72
70072;BME280;57434;42.794;23.302;2023-01-26T05:04:49;95929.66;;;-0.79;75.49
70072;BME280;57434;42.794;23.302;2023-01-26T05:05:53;95939.84;;;-0.76;75.57
70072;BME280;57434;42.794;23.302;2023-01-26T05:06:55;95925.38;;;-0.83;75.47
70072;BME280;57434;42.794;23.302;2023-01-26T05:07:57;95921.06;;;-0.84;75.61
70072;BME280;57434;42.794;23.302;2023-01-26T05:08:59;95928.91;;;-0.83;76.11
70072;BME280;57434;42.794;23.302;2023-01-26T05:10:01;95920.28;;;-0.85;76.07
70072;BME280;57434;42.794;23.302;2023-01-26T05:11:04;95727.78;;;-2.05;75.54
70072;BME280;57434;42.794;23.302;2023-01-26T05:12:06;95905.75;;;-0.89;75.55
70072;BME280;57434;42.794;23.302;2023-01-26T05:13:08;95926.91;;;-0.79;75.50
70072;BME280;57434;42.794;23.302;2023-01-26T05:14:10;95937.81;;;-0.72;75.47
70072;BME280;57434;42.794;23.302;2023-01-26T05:15:12;95932.78;;;-0.77;75.96
70072;BME280;57434;42.794;23.302;2023-01-26T05:16:14;95938.66;;;-0.75;76.01
70072;BME280;57434;42.794;23.302;2023-01-26T05:17:17;95830.81;;;-1.38;76.01
70072;BME280;57434;42.794;23.302;2023-01-26T05:18:19;95944.84;;;-0.67;75.75
70072;BME280;57434;42.794;23.302;2023-01-26T05:19:21;95944.03;;;-0.64;75.66
70072;BME280;57434;42.794;23.302;2023-01-26T05:20:23;95812.78;;;-1.42;75.35
70072;BME280;57434;42.794;23.302;2023-01-26T05:21:24;95926.75;;;-0.68;75.43
70072;BME280;57434;42.794;23.302;2023-01-26T05:22:26;95825.56;;;-1.59;75.31
70072;BME280;57434;42.794;23.302;2023-01-26T05:23:28;95685.22;;;-2.27;75.24
70072;BME280;57434;42.794;23.302;2023-01-26T05:24:30;95921.47;;;-0.86;75.40
70072;BME280;57434;42.794;23.302;2023-01-26T05:25:32;95932.75;;;-0.73;75.57
70072;BME280;57434;42.794;23.302;2023-01-26T05:26:34;95927.69;;;-0.78;75.22
70072;BME280;57434;42.794;23.302;2023-01-26T05:27:36;95915.59;;;-0.88;75.47
70072;BME280;57434;42.794;23.302;2023-01-26T05:28:38;95930.03;;;-0.77;75.58
70072;BME280;57434;42.794;23.302;2023-01-26T05:29:40;95948.75;;;-0.98;75.70
70072;BME280;57434;42.794;23.302;2023-01-26T05:30:42;95938.59;;;-0.71;75.91
70072;BME280;57434;42.794;23.302;2023-01-26T05:31:44;95905.69;;;-0.82;76.12
70072;BME280;57434;42.794;23.302;2023-01-26T05:32:46;95909.56;;;-0.76;76.15
70072;BME280;57434;42.794;23.302;2023-01-26T05:33:48;95852.66;;;-1.23;75.98
70072;BME280;57434;42.794;23.302;2023-01-26T05:34:50;95861.88;;;-1.03;75.71
70072;BME280;57434;42.794;23.302;2023-01-26T05:35:53;95841.97;;;-1.18;75.55
70072;BME280;57434;42.794;23.302;2023-01-26T05:36:55;95920.84;;;-0.67;75.64